Time;durP1;ratioP1;P1;durP2;ratioP2;P2;SDS_P1;SDS_P2;PMS_P1;PMS_P2;Temp;Humidity;BMP_temperature;BMP_pressure;BME280_temperature;BME280_humidity;BME280_pressure;Samples;Min_cycle;Max_cycle;Signal;HPM_P1;HPM_P2
2022/04/18 00:03:06;;;;;;;;;0.00;0.00;;;;;;;;2;279079322;279079322;-81
2022/04/18 00:11:21;;;;;;;;;1.50;1.50;;;;;;;;2;234068547;234068547;-81
2022/04/18 00:20:29;;;;;;;;;2.50;2.50;;;;;;;;2;279081371;279081371;-81
2022/04/18 00:28:46;;;;;;;;;0.50;0.50;;;;;;;;2;234071288;234071288;-81
2022/04/18 00:37:47;;;;;;;;;1.00;1.00;;;;;;;;2;279078322;279078322;-81
2022/04/18 00:46:12;;;;;;;;;2.00;2.00;;;;;;;;2;234068533;234068533;-82
2022/04/18 00:55:16;;;;;;;;;1.00;1.00;;;;;;;;2;279080024;279080024;-82
2022/04/18 01:03:36;;;;;;;;;0.50;0.50;;;;;;;;2;234068525;234068525;-82
2022/04/18 01:12:41;;;;;;;;;1.00;1.00;;;;;;;;2;279080166;279080166;-79
2022/04/18 01:20:58;;;;;;;;;2.50;2.50;;;;;;;;2;234020398;234020398;-79
2022/04/18 01:30:06;;;;;;;;;1.50;1.50;;;;;;;;2;278966660;278966660;-79
2022/04/18 01:38:42;;;;;;;;;2.00;2.00;;;;;;;;2;234069433;234069433;-79
2022/04/18 01:47:53;;;;;;;;;2.00;2.00;;;;;;;;2;279079709;279079709;-79
2022/04/18 01:56:15;;;;;;;;;3.00;3.00;;;;;;;;2;233966673;233966673;-79
2022/04/18 02:05:36;;;;;;;;;0.00;0.00;;;;;;;;2;279081621;279081621;-79
2022/04/18 02:14:06;;;;;;;;;0.50;0.50;;;;;;;;2;234067324;234067324;-79
2022/04/18 02:23:14;;;;;;;;;0.50;0.50;;;;;;;;2;279078852;279078852;-82
2022/04/18 02:32:47;;;;;;;;;1.50;1.50;;;;;;;;2;234069541;234069541;-81
2022/04/18 02:40:52;;;;;;;;;2.00;2.00;;;;;;;;2;279082473;279082473;-81
2022/04/18 02:49:08;;;;;;;;;1.50;1.50;;;;;;;;2;234068210;234068210;-82
2022/04/18 02:58:08;;;;;;;;;0.00;0.00;;;;;;;;2;279079125;279079125;-81
2022/04/18 03:06:39;;;;;;;;;;;;;;;;;;;;;
2022/04/18 03:15:40;;;;;;;;;1.50;1.50;;;;;;;;2;279110831;279110831;-81
2022/04/18 03:26:00;;;;;;;;;0.50;0.50;;;;;;;;3;77957537;261046387;-81
2022/04/18 03:34:23;;;;;;;;;2.50;2.50;;;;;;;;2;261074416;261074416;-81
2022/04/18 03:43:23;;;;;;;;;1.00;1.00;;;;;;;;2;261076625;261076625;-79
2022/04/18 03:51:39;;;;;;;;;2.00;2.00;;;;;;;;2;261076190;261076190;-79
2022/04/18 04:00:42;;;;;;;;;3.50;3.50;;;;;;;;2;261077808;261077808;-79
2022/04/18 04:08:57;;;;;;;;;1.00;1.00;;;;;;;;2;261077870;261077870;-80
2022/04/18 04:18:05;;;;;;;;;0.50;0.50;;;;;;;;2;261076997;261076997;-79
2022/04/18 04:26:20;;;;;;;;;1.50;1.50;;;;;;;;2;261018050;261018050;-79
2022/04/18 04:35:21;;;;;;;;;3.50;3.50;;;;;;;;2;261078589;261078589;-79
2022/04/18 04:43:36;;;;;;;;;0.50;0.50;;;;;;;;2;261077300;261077300;-79
2022/04/18 04:52:39;;;;;;;;;5.00;5.00;;;;;;;;2;261042187;261042187;-79
2022/04/18 05:00:55;;;;;;;;;1.00;1.00;;;;;;;;2;261077019;261077019;-79
2022/04/18 05:09:55;;;;;;;;;3.50;3.50;;;;;;;;2;261076826;261076826;-79
2022/04/18 05:18:10;;;;;;;;;1.00;1.00;;;;;;;;2;261073024;261073024;-79
2022/04/18 05:27:15;;;;;;;;;10.00;1.00;;;;;;;;2;261075976;261075976;-78
2022/04/18 05:35:30;;;;;;;;;3.00;3.00;;;;;;;;2;261077462;261077462;-79
2022/04/18 05:44:31;;;;;;;;;2.50;2.50;;;;;;;;2;261075061;261075061;-79
2022/04/18 05:52:47;;;;;;;;;3.00;3.00;;;;;;;;2;261075151;261075151;-80
2022/04/18 06:01:48;;;;;;;;;0.50;0.50;;;;;;;;2;261076871;261076871;-80
2022/04/18 06:10:06;;;;;;;;;3.00;3.00;;;;;;;;2;261078529;261078529;-80
2022/04/18 06:19:06;;;;;;;;;2.00;2.00;;;;;;;;2;261076918;261076918;-80
2022/04/18 06:27:22;;;;;;;;;6.00;6.00;;;;;;;;2;261075143;261075143;-80
2022/04/18 06:36:22;;;;;;;;;1.00;1.00;;;;;;;;2;261078967;261078967;-80
2022/04/18 06:44:40;;;;;;;;;2.50;2.50;;;;;;;;2;261074484;261074484;-80
2022/04/18 06:53:41;;;;;;;;;3.50;3.50;;;;;;;;2;261075680;261075680;-80
2022/04/18 07:01:58;;;;;;;;;1.50;1.50;;;;;;;;2;261075109;261075109;-80
2022/04/18 07:10:58;;;;;;;;;15.00;4.00;;;;;;;;2;261077786;261077786;-80
2022/04/18 07:19:21;;;;;;;;;4.50;4.50;;;;;;;;2;261060601;261060601;-80
2022/04/18 07:28:23;;;;;;;;;4.00;4.00;;;;;;;;2;261077134;261077134;-80
2022/04/18 07:36:41;;;;;;;;;7.50;7.50;;;;;;;;2;261076518;261076518;-80
2022/04/18 07:45:53;;;;;;;;;;;;;;;;;;;;;
2022/04/18 07:54:24;;;;;;;;;;;;;;;;;;;;;
2022/04/18 08:04:04;;;;;;;;;;;;;;;;;;;;;
2022/04/18 16:20:16;;;;;;;;;;;;;;;;;;;;;
2022/04/18 17:13:14;;;;;;;;;4.50;4.50;;;;;;;;2;261090389;261090389;-82
2022/04/18 17:31:51;;;;;;;;;4.00;4.00;;;;;;;;2;261078294;261078294;-81
2022/04/18 17:40:16;;;;;;;;;2.50;2.50;;;;;;;;2;261079566;261079566;-82
2022/04/18 17:49:16;;;;;;;;;1.00;1.00;;;;;;;;2;261079235;261079235;-81
2022/04/18 17:57:31;;;;;;;;;2.50;2.50;;;;;;;;2;260774533;260774533;-81
2022/04/18 18:06:31;;;;;;;;;1.00;1.00;;;;;;;;2;261076860;261076860;-80
2022/04/18 18:14:57;;;;;;;;;;;;;;;;;;;;;
2022/04/18 18:33:37;;;;;;;;;;;;;;;;;;;;;
2022/04/18 19:28:50;;;;;;;;;8.00;8.00;;;;;;;;2;261077168;261077168;-85
2022/04/18 19:37:48;;;;;;;;;5.50;5.50;;;;;;;;2;259075487;259075487;-84
2022/04/18 19:46:03;;;;;;;;;7.50;6.00;;;;;;;;2;261079515;261079515;-87
2022/04/18 21:49:50;;;;;;;;;;;;;;;;;;;;;
2022/04/18 22:08:16;;;;;;;;;;;;;;;;;;;;;
2022/04/18 22:17:16;;;;;;;;;25.00;13.50;;;;;;;;2;261113973;261113973;-84
2022/04/18 22:25:32;;;;;;;;;25.50;9.50;;;;;;;;2;261078401;261078401;-84
2022/04/18 22:34:34;;;;;;;;;14.50;14.50;;;;;;;;2;261078036;261078036;-85
2022/04/18 22:42:50;;;;;;;;;48.50;20.50;;;;;;;;2;261078721;261078721;-85
2022/04/18 22:51:50;;;;;;;;;14.50;13.00;;;;;;;;2;261079888;261079888;-85
2022/04/18 23:00:07;;;;;;;;;13.50;13.50;;;;;;;;2;261075919;261075919;-84
2022/04/18 23:09:08;;;;;;;;;8.00;8.00;;;;;;;;2;261075690;261075690;-85
2022/04/18 23:17:20;;;;;;;;;11.50;11.50;;;;;;;;2;261073977;261073977;-84
2022/04/18 23:26:21;;;;;;;;;12.00;12.00;;;;;;;;2;261077190;261077190;-84
2022/04/18 23:34:37;;;;;;;;;24.00;13.00;;;;;;;;2;261077558;261077558;-84
2022/04/18 23:43:38;;;;;;;;;6.50;6.50;;;;;;;;2;261076977;261076977;-85
2022/04/18 23:51:53;;;;;;;;;19.00;7.00;;;;;;;;2;261079518;261079518;-85
